Time;durP1;ratioP1;P1;durP2;ratioP2;P2;SDS_P1;SDS_P2;PMS_P1;PMS_P2;Temp;Humidity;BMP_temperature;BMP_pressure;BME280_temperature;BME280_humidity;BME280_pressure;Samples;Min_cycle;Max_cycle;Signal;HPM_P1;HPM_P2
2022/05/02 00:00:28;;;;;;;0.13;0.13;;;11.10;99.90;;;;;;4967905;28;20031;-80
2022/05/02 00:02:54;;;;;;;0.28;0.28;;;11.10;99.90;;;;;;4976782;28;20054;-80
2022/05/02 00:05:19;;;;;;;0.10;0.10;;;11.10;99.90;;;;;;4969929;28;20045;-81
2022/05/02 00:07:46;;;;;;;0.13;0.10;;;11.10;99.90;;;;;;4978870;28;20031;-81
2022/05/02 00:10:12;;;;;;;0.30;0.30;;;11.10;99.90;;;;;;4967985;28;20507;-81
2022/05/02 00:12:37;;;;;;;0.25;0.25;;;11.00;99.90;;;;;;4969738;28;20568;-80
2022/05/02 00:15:03;;;;;;;0.50;0.50;;;11.00;99.90;;;;;;4969426;28;20102;-81
2022/05/02 00:20:13;;;;;;;0.03;0.03;;;11.00;99.90;;;;;;4968542;28;20038;-81
2022/05/02 00:22:40;;;;;;;0.00;0.00;;;11.00;99.90;;;;;;4968648;28;20027;-81
2022/05/02 00:25:06;;;;;;;0.85;0.85;;;11.00;99.90;;;;;;4968975;28;20077;-81
2022/05/02 00:27:32;;;;;;;0.00;0.00;;;11.00;99.90;;;;;;4967809;28;20033;-81
2022/05/02 00:29:57;;;;;;;0.13;0.13;;;10.90;99.90;;;;;;4968491;28;20034;-80
2022/05/02 00:32:23;;;;;;;0.52;0.52;;;10.90;99.90;;;;;;4963768;28;20110;-80
2022/05/02 00:34:48;;;;;;;0.38;0.35;;;10.90;99.90;;;;;;4966262;28;20031;-81
2022/05/02 00:37:15;;;;;;;8.07;1.35;;;10.90;99.90;;;;;;4969575;28;20031;-80
2022/05/02 00:39:41;;;;;;;0.22;0.22;;;10.80;99.90;;;;;;4967577;28;20122;-80
2022/05/02 00:42:06;;;;;;;0.47;0.30;;;10.80;99.90;;;;;;4968555;28;20537;-81
2022/05/02 00:44:32;;;;;;;0.10;0.10;;;10.70;99.90;;;;;;4972605;28;20097;-80
2022/05/02 00:46:57;;;;;;;0.00;0.00;;;10.60;99.90;;;;;;4968922;28;20066;-81
2022/05/02 00:49:23;;;;;;;0.43;0.38;;;10.50;99.90;;;;;;4960629;28;20022;-81
2022/05/02 00:51:48;;;;;;;0.00;0.00;;;10.40;99.90;;;;;;4972316;28;20038;-81
2022/05/02 00:54:14;;;;;;;0.10;0.10;;;10.40;99.90;;;;;;4972397;28;20031;-81
2022/05/02 00:56:41;;;;;;;0.17;0.17;;;10.30;99.90;;;;;;4971524;28;20030;-80
2022/05/02 00:59:08;;;;;;;1.23;0.32;;;10.20;99.90;;;;;;4970735;28;20045;-80
2022/05/02 01:01:34;;;;;;;0.00;0.00;;;10.20;99.90;;;;;;4972327;28;20042;-80
2022/05/02 01:03:59;;;;;;;0.17;0.17;;;10.10;99.90;;;;;;4972389;28;20081;-81
2022/05/02 01:09:09;;;;;;;0.98;0.30;;;10.00;99.90;;;;;;4972957;28;20038;-81
2022/05/02 01:11:34;;;;;;;0.28;0.28;;;9.90;99.90;;;;;;4971269;28;20026;-81
2022/05/02 01:14:00;;;;;;;0.70;0.68;;;9.80;99.90;;;;;;4971393;28;20067;-80
2022/05/02 01:16:28;;;;;;;0.10;0.10;;;9.80;99.90;;;;;;4971274;28;20030;-80
2022/05/02 01:18:58;;;;;;;0.08;0.05;;;9.70;99.90;;;;;;4972492;28;20034;-80
2022/05/02 01:21:26;;;;;;;0.10;0.10;;;9.60;99.90;;;;;;4971878;28;20030;-80
2022/05/02 01:23:57;;;;;;;0.17;0.17;;;9.60;99.90;;;;;;4971829;28;20031;-81
2022/05/02 01:26:22;;;;;;;0.00;0.00;;;9.50;99.90;;;;;;4972084;28;20094;-80
2022/05/02 01:28:50;;;;;;;0.40;0.40;;;9.50;99.90;;;;;;4972113;28;20131;-81
2022/05/02 01:31:17;;;;;;;0.10;0.10;;;9.50;99.90;;;;;;4968635;28;20187;-80
2022/05/02 01:33:42;;;;;;;0.13;0.13;;;9.50;99.90;;;;;;4970940;28;20053;-80
2022/05/02 01:36:08;;;;;;;0.50;0.50;;;9.50;99.90;;;;;;4971032;28;20474;-80
2022/05/02 01:38:35;;;;;;;1.10;0.98;;;9.50;99.90;;;;;;4972021;28;20023;-81
2022/05/02 01:41:04;;;;;;;0.43;0.43;;;9.50;99.90;;;;;;4971615;28;20097;-81
2022/05/02 01:43:31;;;;;;;0.32;0.22;;;9.60;99.90;;;;;;4969904;28;20037;-79
2022/05/02 01:45:57;;;;;;;4.95;0.75;;;9.60;99.90;;;;;;4970884;28;20471;-79
2022/05/02 01:48:23;;;;;;;1.35;0.68;;;9.60;99.90;;;;;;4968493;28;20050;-80
2022/05/02 01:50:48;;;;;;;0.35;0.35;;;9.60;99.90;;;;;;4969942;28;20035;-79
2022/05/02 01:53:14;;;;;;;0.40;0.40;;;9.60;99.90;;;;;;4971316;28;20099;-79
2022/05/02 01:55:40;;;;;;;0.03;0.03;;;9.50;99.90;;;;;;4972071;28;20058;-79
2022/05/02 01:58:06;;;;;;;1.55;1.38;;;9.40;99.90;;;;;;4971920;28;20081;-79
2022/05/02 02:00:31;;;;;;;0.10;0.10;;;9.30;99.90;;;;;;4971508;28;20022;-79
2022/05/02 02:02:56;;;;;;;0.00;0.00;;;9.20;99.90;;;;;;4969304;28;20035;-79
2022/05/02 02:08:06;;;;;;;1.10;0.90;;;9.20;99.90;;;;;;4971382;28;20042;-78
2022/05/02 02:10:32;;;;;;;0.08;0.08;;;9.20;99.90;;;;;;4971445;28;20166;-79
2022/05/02 02:12:57;;;;;;;0.22;0.22;;;9.20;99.90;;;;;;4970524;28;20042;-79
2022/05/02 02:15:23;;;;;;;0.45;0.45;;;9.30;99.90;;;;;;4971465;28;20117;-79
2022/05/02 02:17:48;;;;;;;0.50;0.50;;;9.20;99.90;;;;;;4971148;28;20086;-79
2022/05/02 02:20:14;;;;;;;0.10;0.10;;;9.20;99.90;;;;;;4970546;28;20030;-79
2022/05/02 02:22:40;;;;;;;0.10;0.10;;;9.20;99.90;;;;;;4969654;28;20089;-79
2022/05/02 02:25:06;;;;;;;0.00;0.00;;;9.20;99.90;;;;;;4970117;28;20497;-79
2022/05/02 02:27:32;;;;;;;0.15;0.15;;;9.20;99.90;;;;;;4971392;28;20429;-79
2022/05/02 02:29:59;;;;;;;0.10;0.10;;;9.10;99.90;;;;;;4970469;28;20038;-78
2022/05/02 02:32:24;;;;;;;0.22;0.22;;;9.10;99.90;;;;;;4969144;28;20038;-78
2022/05/02 02:34:50;;;;;;;0.05;0.05;;;9.10;99.90;;;;;;4971510;28;20074;-79
2022/05/02 02:37:16;;;;;;;0.45;0.45;;;9.10;99.90;;;;;;4969178;28;20458;-78
2022/05/02 02:39:45;;;;;;;0.10;0.10;;;9.00;99.90;;;;;;4970151;28;20464;-79
2022/05/02 02:42:10;;;;;;;1.98;0.95;;;9.00;99.90;;;;;;4968110;28;20110;-78
2022/05/02 02:44:36;;;;;;;0.20;0.20;;;8.90;99.90;;;;;;4970618;28;20114;-79
2022/05/02 02:47:02;;;;;;;2.80;1.50;;;8.80;99.90;;;;;;4970651;28;20038;-78
2022/05/02 02:49:27;;;;;;;0.10;0.10;;;8.80;99.90;;;;;;4973723;28;20035;-78
2022/05/02 02:51:53;;;;;;;0.20;0.20;;;8.70;99.90;;;;;;4970655;28;20039;-78
2022/05/02 02:54:18;;;;;;;0.10;0.10;;;8.60;99.90;;;;;;4969245;28;20029;-78
2022/05/02 02:56:44;;;;;;;0.10;0.10;;;8.50;99.90;;;;;;4968636;28;20482;-79
2022/05/02 02:59:09;;;;;;;0.00;0.00;;;8.50;99.90;;;;;;4970509;28;20114;-78
2022/05/02 03:01:35;;;;;;;0.20;0.20;;;8.50;99.90;;;;;;4962669;28;20050;-78
2022/05/02 03:06:01;;;;;;;0.25;0.25;;;8.40;99.90;;;;;;4969919;28;20105;-79
2022/05/02 03:06:49;;;;;;;0.00;0.00;;;8.40;99.90;;;;;;4969438;28;20113;-78
2022/05/02 03:09:15;;;;;;;0.10;0.10;;;8.40;99.90;;;;;;4968117;28;20162;-78
2022/05/02 03:11:40;;;;;;;0.70;0.63;;;8.20;99.90;;;;;;4968909;28;20560;-79
2022/05/02 03:14:06;;;;;;;0.20;0.20;;;8.20;99.90;;;;;;4970165;28;20031;-78
2022/05/02 03:16:31;;;;;;;0.30;0.25;;;8.10;99.90;;;;;;4969188;28;20034;-78
2022/05/02 03:18:57;;;;;;;0.38;0.15;;;8.10;99.90;;;;;;4969632;28;20418;-78
2022/05/02 03:21:22;;;;;;;0.00;0.00;;;8.10;99.90;;;;;;4970297;28;20054;-78
2022/05/02 03:23:48;;;;;;;0.00;0.00;;;8.00;99.90;;;;;;4969398;28;20500;-78
2022/05/02 03:26:13;;;;;;;0.50;0.50;;;8.00;99.90;;;;;;4967558;28;20027;-79
2022/05/02 03:28:39;;;;;;;0.30;0.30;;;8.00;99.90;;;;;;4968049;28;20482;-78
2022/05/02 03:31:04;;;;;;;0.13;0.13;;;7.90;99.90;;;;;;4970294;28;20089;-78
2022/05/02 03:33:30;;;;;;;0.35;0.35;;;7.90;99.90;;;;;;4968141;28;20097;-78
2022/05/02 03:35:55;;;;;;;1.02;0.40;;;7.90;99.90;;;;;;4970119;28;20035;-78
2022/05/02 03:38:21;;;;;;;0.25;0.25;;;7.90;99.90;;;;;;4969487;28;20433;-79
2022/05/02 03:40:46;;;;;;;0.00;0.00;;;7.90;99.90;;;;;;4969768;28;20065;-78
2022/05/02 03:43:12;;;;;;;0.00;0.00;;;7.80;99.90;;;;;;4966580;28;21545;-78
2022/05/02 03:45:37;;;;;;;0.40;0.40;;;7.80;99.90;;;;;;4969415;28;20042;-78
2022/05/02 03:48:03;;;;;;;0.55;0.55;;;7.90;99.90;;;;;;4969730;28;20698;-78
2022/05/02 03:50:29;;;;;;;0.10;0.10;;;7.90;99.90;;;;;;4969416;28;20065;-78
2022/05/02 03:52:54;;;;;;;1.80;0.95;;;7.80;99.90;;;;;;4969431;28;20070;-79
2022/05/02 03:55:20;;;;;;;0.10;0.10;;;7.80;99.90;;;;;;4969195;28;20067;-78
2022/05/02 03:57:46;;;;;;;0.43;0.43;;;7.80;99.90;;;;;;4969502;28;20065;-79
2022/05/02 04:00:11;;;;;;;0.10;0.10;;;7.80;99.90;;;;;;4964412;28;20030;-79
2022/05/02 04:02:37;;;;;;;0.20;0.20;;;7.80;99.90;;;;;;4968464;28;20608;-78
2022/05/02 04:05:03;;;;;;;1.02;1.02;;;7.80;99.90;;;;;;4969146;28;20058;-79
2022/05/02 04:07:28;;;;;;;0.20;0.20;;;7.80;99.90;;;;;;4968492;28;20031;-78
2022/05/02 04:09:53;;;;;;;0.22;0.22;;;7.80;99.90;;;;;;4969485;28;20026;-78
2022/05/02 04:12:19;;;;;;;0.43;0.43;;;7.80;99.90;;;;;;4969108;28;20624;-78
2022/05/02 04:14:44;;;;;;;0.30;0.30;;;7.80;99.90;;;;;;4967489;28;20015;-78
2022/05/02 04:17:10;;;;;;;1.95;0.63;;;7.80;99.90;;;;;;4970455;28;20022;-78
2022/05/02 04:19:35;;;;;;;0.15;0.15;;;7.90;99.90;;;;;;4972245;28;20494;-78
2022/05/02 04:22:01;;;;;;;0.10;0.10;;;7.90;99.90;;;;;;4973180;28;20106;-78
2022/05/02 04:24:28;;;;;;;0.03;0.03;;;7.90;99.90;;;;;;4972991;28;20059;-78
2022/05/02 04:26:54;;;;;;;0.08;0.08;;;7.90;99.90;;;;;;4973014;28;20062;-78
2022/05/02 04:29:19;;;;;;;0.10;0.10;;;7.90;99.90;;;;;;4972740;28;20066;-78
2022/05/02 04:31:45;;;;;;;0.43;0.43;;;7.90;99.90;;;;;;4971087;28;20035;-78
2022/05/02 04:34:10;;;;;;;0.10;0.10;;;8.00;99.90;;;;;;4967981;28;20105;-78
2022/05/02 04:36:36;;;;;;;0.00;0.00;;;8.00;99.90;;;;;;4970374;28;20461;-78
2022/05/02 04:39:02;;;;;;;0.50;0.50;;;8.10;99.90;;;;;;4973083;28;20069;-79
2022/05/02 04:41:27;;;;;;;0.63;0.63;;;8.00;99.90;;;;;;4972633;28;20035;-78
2022/05/02 04:43:53;;;;;;;0.35;0.32;;;8.10;99.90;;;;;;4972233;28;20053;-78
2022/05/02 04:46:19;;;;;;;0.70;0.70;;;8.20;99.90;;;;;;4969292;28;20046;-78
2022/05/02 04:48:45;;;;;;;0.10;0.10;;;8.20;99.90;;;;;;4972688;28;20053;-78
2022/05/02 04:51:11;;;;;;;0.10;0.10;;;8.30;99.90;;;;;;4976506;28;20030;-79
2022/05/02 04:53:36;;;;;;;0.15;0.15;;;8.30;99.90;;;;;;4971680;28;20042;-78
2022/05/02 04:56:02;;;;;;;0.82;0.82;;;8.30;99.90;;;;;;4972709;28;20570;-79
2022/05/02 04:58:27;;;;;;;0.20;0.20;;;8.40;99.90;;;;;;4972254;28;20374;-79
2022/05/02 05:00:53;;;;;;;0.10;0.10;;;8.40;99.90;;;;;;4972752;28;20524;-79
2022/05/02 05:03:19;;;;;;;0.40;0.40;;;8.50;99.90;;;;;;4969393;28;20035;-79
2022/05/02 05:05:44;;;;;;;0.40;0.40;;;8.50;99.90;;;;;;4972390;28;20516;-79
2022/05/02 05:08:10;;;;;;;0.20;0.20;;;8.60;99.90;;;;;;4972508;28;20050;-79
2022/05/02 05:10:56;;;;;;;0.77;0.73;;;8.60;99.90;;;;;;4971464;28;20035;-79
2022/05/02 05:13:26;;;;;;;0.00;0.00;;;8.60;99.90;;;;;;4965685;28;20026;-79
2022/05/02 05:16:24;;;;;;;1.77;1.27;;;8.70;99.90;;;;;;4971913;28;20027;-79
2022/05/02 05:19:14;;;;;;;0.77;0.55;;;8.80;99.90;;;;;;4970643;28;20027;-79
2022/05/02 05:22:03;;;;;;;0.10;0.10;;;8.90;99.90;;;;;;4969127;28;20406;-79
2022/05/02 05:24:54;;;;;;;0.55;0.38;;;9.00;99.90;;;;;;4970821;28;20436;-79
2022/05/02 05:28:02;;;;;;;0.25;0.25;;;9.00;99.90;;;;;;4970537;28;20039;-79
2022/05/02 05:30:36;;;;;;;0.47;0.47;;;9.20;99.90;;;;;;4964883;28;20059;-78
2022/05/02 05:33:24;;;;;;;0.13;0.13;;;9.30;99.90;;;;;;4972267;28;20035;-79
2022/05/02 05:36:07;;;;;;;0.30;0.30;;;9.50;99.90;;;;;;4982019;28;20031;-79
2022/05/02 05:39:01;;;;;;;0.20;0.20;;;9.60;99.90;;;;;;4970105;28;20539;-79
2022/05/02 05:41:47;;;;;;;0.38;0.38;;;9.90;99.90;;;;;;4969017;28;20029;-81
2022/05/02 05:44:34;;;;;;;0.40;0.40;;;10.20;99.90;;;;;;4971192;28;20042;-80
2022/05/02 05:47:03;;;;;;;3.83;1.00;;;10.40;99.90;;;;;;4969925;28;20114;-79
2022/05/02 05:50:04;;;;;;;0.32;0.32;;;10.60;99.90;;;;;;4972533;28;20023;-76
2022/05/02 05:52:56;;;;;;;0.60;0.60;;;10.70;99.90;;;;;;4948573;28;20066;-79
2022/05/02 05:55:29;;;;;;;0.20;0.20;;;10.70;99.90;;;;;;4970007;28;20390;-83
2022/05/02 05:58:09;;;;;;;0.52;0.52;;;10.60;99.90;;;;;;4971844;28;20488;-78
2022/05/02 06:00:43;;;;;;;2.20;0.57;;;10.60;99.90;;;;;;4970705;28;20434;-78
2022/05/02 06:03:34;;;;;;;0.32;0.32;;;10.60;99.90;;;;;;4965641;28;20030;-80
2022/05/02 06:06:00;;;;;;;0.35;0.35;;;10.60;99.90;;;;;;4964650;28;20073;-80
2022/05/02 06:08:29;;;;;;;0.47;0.35;;;10.80;99.90;;;;;;4965801;28;20035;-80
2022/05/02 06:10:58;;;;;;;1.23;1.00;;;11.00;99.40;;;;;;4966388;28;20061;-79
2022/05/02 06:13:27;;;;;;;0.20;0.20;;;11.30;98.50;;;;;;4965594;28;20046;-80
2022/05/02 06:18:41;;;;;;;0.30;0.30;;;11.60;95.70;;;;;;4967219;28;20042;-81
2022/05/02 06:21:08;;;;;;;0.40;0.40;;;11.50;97.20;;;;;;4963660;28;20026;-85
2022/05/02 06:23:45;;;;;;;2.38;0.65;;;11.40;96.20;;;;;;4967010;28;20019;-82
2022/05/02 06:26:10;;;;;;;0.15;0.15;;;11.30;96.70;;;;;;4968660;28;20032;-88
2022/05/02 06:28:44;;;;;;;4.22;1.50;;;11.30;97.40;;;;;;4966615;28;20481;-79
2022/05/02 06:31:17;;;;;;;0.10;0.10;;;11.40;97.30;;;;;;4967246;28;20051;-79
2022/05/02 06:33:48;;;;;;;0.00;0.00;;;11.40;97.60;;;;;;4967366;28;20045;-80
2022/05/02 06:36:33;;;;;;;0.47;0.47;;;11.40;97.30;;;;;;4968898;28;20025;-79
2022/05/02 06:39:29;;;;;;;1.20;0.80;;;11.40;96.00;;;;;;4968986;28;20041;-80
2022/05/02 06:42:12;;;;;;;0.55;0.55;;;11.30;95.80;;;;;;4966747;28;20077;-81
2022/05/02 06:44:48;;;;;;;0.00;0.00;;;11.40;94.20;;;;;;4967302;28;20082;-78
2022/05/02 06:47:29;;;;;;;1.00;0.73;;;11.50;93.80;;;;;;4967638;28;20027;-79
2022/05/02 06:49:57;;;;;;;1.40;0.98;;;11.60;92.10;;;;;;4967073;28;20023;-78
2022/05/02 06:52:38;;;;;;;5.82;1.35;;;11.60;91.50;;;;;;4968869;28;20065;-79
2022/05/02 06:55:24;;;;;;;0.60;0.60;;;11.60;89.80;;;;;;4968087;28;20170;-79
2022/05/02 06:57:53;;;;;;;0.55;0.55;;;11.70;90.90;;;;;;4965578;28;20031;-80
2022/05/02 07:00:20;;;;;;;0.43;0.40;;;11.70;91.30;;;;;;4966583;28;20046;-79
2022/05/02 07:03:01;;;;;;;0.15;0.15;;;11.80;90.70;;;;;;4966616;28;20031;-80
2022/05/02 07:05:42;;;;;;;1.40;1.30;;;11.90;91.00;;;;;;4965469;28;20465;-79
2022/05/02 07:08:07;;;;;;;5.63;1.80;;;12.00;87.80;;;;;;4968948;28;20270;-77
2022/05/02 07:10:35;;;;;;;0.00;0.00;;;12.10;84.30;;;;;;4966526;28;20101;-77
2022/05/02 07:13:22;;;;;;;0.45;0.45;;;12.10;79.20;;;;;;4964804;28;20031;-80
2022/05/02 07:16:09;;;;;;;0.10;0.10;;;12.20;78.20;;;;;;4966342;28;20575;-77
2022/05/02 07:18:49;;;;;;;0.22;0.22;;;12.40;75.00;;;;;;4966571;28;20117;-77
2022/05/02 07:21:38;;;;;;;0.13;0.13;;;12.50;76.50;;;;;;4964471;28;20030;-76
2022/05/02 07:24:14;;;;;;;0.65;0.30;;;12.60;77.00;;;;;;4965859;28;20489;-76
2022/05/02 07:26:41;;;;;;;0.22;0.20;;;12.60;76.50;;;;;;4960075;28;20178;-76
2022/05/02 07:29:09;;;;;;;0.00;0.00;;;12.80;77.20;;;;;;4965297;28;20038;-77
2022/05/02 07:31:35;;;;;;;0.00;0.00;;;12.80;76.70;;;;;;4968171;28;20034;-77
2022/05/02 07:34:02;;;;;;;23.38;0.63;;;13.00;77.10;;;;;;4964876;28;20089;-77
2022/05/02 07:36:31;;;;;;;0.00;0.00;;;13.10;74.80;;;;;;4967025;28;20058;-79
2022/05/02 07:39:03;;;;;;;0.50;0.50;;;13.20;74.00;;;;;;4968273;28;20031;-79
2022/05/02 07:41:29;;;;;;;0.40;0.40;;;13.30;74.20;;;;;;4968284;28;20027;-80
2022/05/02 07:44:00;;;;;;;0.38;0.28;;;13.40;73.00;;;;;;4966790;28;20030;-77
2022/05/02 07:46:29;;;;;;;0.17;0.15;;;13.50;75.10;;;;;;4964583;28;20201;-75
2022/05/02 07:48:57;;;;;;;0.20;0.20;;;13.50;77.50;;;;;;4962654;28;20039;-78
2022/05/02 07:51:23;;;;;;;0.85;0.57;;;13.60;77.10;;;;;;4966002;28;20054;-80
2022/05/02 07:53:50;;;;;;;1.33;0.50;;;13.70;77.60;;;;;;4963075;28;20034;-77
2022/05/02 07:56:21;;;;;;;0.20;0.20;;;13.70;78.70;;;;;;4965939;28;20035;-79
2022/05/02 07:58:48;;;;;;;0.93;0.65;;;13.80;77.90;;;;;;4966709;28;20042;-82
2022/05/02 08:01:21;;;;;;;1.08;1.05;;;13.80;77.60;;;;;;4967718;28;20478;-80
2022/05/02 08:03:47;;;;;;;0.47;0.47;;;13.90;78.90;;;;;;4964597;28;20046;-78
2022/05/02 08:06:39;;;;;;;0.40;0.40;;;14.00;77.30;;;;;;4966383;28;20030;-79
2022/05/02 08:09:32;;;;;;;0.52;0.52;;;14.10;75.50;;;;;;4967037;28;20051;-75
2022/05/02 08:12:03;;;;;;;0.10;0.10;;;14.20;74.80;;;;;;4966978;28;20541;-78
2022/05/02 08:14:34;;;;;;;0.27;0.27;;;14.30;74.80;;;;;;4967037;28;20050;-78
2022/05/02 08:17:08;;;;;;;0.10;0.10;;;14.40;74.60;;;;;;4966318;28;20038;-79
2022/05/02 08:20:08;;;;;;;0.15;0.10;;;14.50;73.40;;;;;;4967883;28;20027;-80
2022/05/02 08:29:01;;;;;;;0.13;0.13;;;14.70;73.10;;;;;;4967271;28;20085;-76
2022/05/02 08:31:51;;;;;;;0.47;0.47;;;14.90;75.00;;;;;;4965915;28;20038;-76
2022/05/02 08:34:35;;;;;;;0.28;0.28;;;15.00;72.00;;;;;;4965531;28;20717;-76
2022/05/02 08:37:49;;;;;;;0.20;0.20;;;15.00;73.10;;;;;;4967601;28;20058;-76
2022/05/02 08:40:18;;;;;;;0.80;0.63;;;15.10;70.20;;;;;;4964073;28;20125;-76
2022/05/02 08:43:21;;;;;;;0.25;0.20;;;15.10;71.40;;;;;;4967048;28;20027;-76
2022/05/02 08:46:24;;;;;;;0.30;0.22;;;15.20;70.70;;;;;;4965000;28;20047;-77
2022/05/02 08:49:35;;;;;;;0.50;0.50;;;15.30;74.30;;;;;;4964902;28;20137;-76
2022/05/02 08:52:12;;;;;;;0.95;0.22;;;15.50;71.60;;;;;;4966509;28;20026;-77
2022/05/02 08:55:02;;;;;;;0.00;0.00;;;15.50;69.40;;;;;;4966442;28;20030;-76
2022/05/02 08:57:58;;;;;;;0.65;0.65;;;15.40;69.50;;;;;;4966414;28;20089;-76
2022/05/02 09:01:01;;;;;;;0.10;0.10;;;15.60;71.50;;;;;;4968069;28;20019;-76
2022/05/02 09:03:48;;;;;;;0.10;0.10;;;15.70;70.00;;;;;;4967650;28;20401;-76
2022/05/02 09:06:38;;;;;;;1.45;0.85;;;15.70;69.80;;;;;;4969451;28;20477;-77
2022/05/02 09:09:28;;;;;;;0.10;0.10;;;15.80;68.30;;;;;;4967900;28;20038;-77
2022/05/02 09:12:48;;;;;;;0.38;0.38;;;15.90;67.90;;;;;;4968278;28;20065;-76
2022/05/02 09:15:58;;;;;;;0.20;0.20;;;15.90;66.50;;;;;;4971333;28;20026;-77
2022/05/02 09:18:42;;;;;;;6.93;0.63;;;16.10;66.30;;;;;;4967235;28;20664;-77
2022/05/02 09:21:17;;;;;;;0.63;0.60;;;16.20;68.20;;;;;;4969583;28;20023;-76
2022/05/02 09:24:09;;;;;;;0.45;0.45;;;16.30;68.70;;;;;;4970317;28;20027;-77
2022/05/02 09:26:55;;;;;;;1.00;0.95;;;16.50;66.20;;;;;;4970117;28;20035;-77
2022/05/02 09:29:58;;;;;;;0.00;0.00;;;16.50;65.70;;;;;;4966609;28;20113;-76
2022/05/02 09:32:47;;;;;;;0.30;0.30;;;16.70;64.60;;;;;;4968741;28;20046;-77
2022/05/02 09:35:21;;;;;;;0.10;0.10;;;16.90;65.80;;;;;;4969015;28;20396;-76
2022/05/02 09:37:58;;;;;;;0.05;0.05;;;17.00;62.50;;;;;;4970480;28;20084;-76
2022/05/02 09:40:33;;;;;;;0.32;0.20;;;17.10;64.50;;;;;;4969342;28;20014;-78
2022/05/02 09:49:58;;;;;;;0.25;0.13;;;17.80;62.40;;;;;;4970217;28;20147;-78
2022/05/02 09:52:33;;;;;;;0.57;0.57;;;17.80;61.50;;;;;;4966599;28;20046;-79
2022/05/02 09:58:30;;;;;;;0.00;0.00;;;18.20;61.50;;;;;;4968694;28;20158;-79
2022/05/02 10:01:08;;;;;;;0.40;0.40;;;18.10;59.30;;;;;;4966421;28;20106;-76
2022/05/02 10:03:53;;;;;;;0.65;0.65;;;17.90;59.80;;;;;;4967304;28;20118;-78
2022/05/02 10:06:29;;;;;;;0.32;0.32;;;17.80;58.80;;;;;;4969254;28;20027;-79
2022/05/02 10:09:07;;;;;;;1.60;0.82;;;17.90;60.80;;;;;;4970087;28;20070;-75
2022/05/02 10:12:05;;;;;;;0.20;0.20;;;18.00;60.40;;;;;;4969304;28;20037;-77
2022/05/02 10:14:49;;;;;;;0.25;0.25;;;18.10;59.20;;;;;;4968269;28;20043;-77
2022/05/02 10:17:38;;;;;;;1.60;0.52;;;18.10;60.00;;;;;;4969909;28;20050;-76
2022/05/02 10:20:18;;;;;;;3.95;0.43;;;18.00;58.90;;;;;;4967492;28;20030;-76
2022/05/02 10:23:12;;;;;;;0.30;0.30;;;18.10;58.00;;;;;;4965214;28;20125;-76
2022/05/02 10:25:55;;;;;;;0.20;0.20;;;18.30;61.80;;;;;;4969460;28;20027;-76
2022/05/02 10:28:46;;;;;;;1.67;0.77;;;18.40;59.40;;;;;;4969608;28;20034;-75
2022/05/02 10:31:25;;;;;;;0.10;0.10;;;18.60;56.80;;;;;;4969069;28;20458;-78
2022/05/02 10:34:24;;;;;;;1.42;0.73;;;18.90;56.00;;;;;;4965351;28;20035;-75
2022/05/02 10:36:53;;;;;;;0.30;0.30;;;18.90;56.60;;;;;;4965267;28;20470;-76
2022/05/02 10:39:40;;;;;;;0.35;0.35;;;18.90;57.20;;;;;;4965796;28;20630;-75
2022/05/02 10:42:07;;;;;;;0.15;0.13;;;19.20;58.30;;;;;;4966878;28;20385;-76
2022/05/02 10:45:01;;;;;;;0.43;0.43;;;19.30;56.20;;;;;;4968687;28;20735;-75
2022/05/02 10:47:45;;;;;;;0.60;0.60;;;18.90;57.70;;;;;;4967032;28;20035;-75
2022/05/02 10:50:25;;;;;;;1.77;0.63;;;18.60;56.30;;;;;;4967641;28;20027;-76
2022/05/02 10:52:55;;;;;;;0.85;0.30;;;18.30;56.40;;;;;;4968528;28;20027;-76
2022/05/02 10:55:30;;;;;;;0.43;0.32;;;17.90;57.20;;;;;;4969004;28;20029;-75
2022/05/02 10:58:04;;;;;;;0.43;0.40;;;17.80;59.20;;;;;;4966284;28;20412;-76
2022/05/02 11:00:30;;;;;;;1.05;0.22;;;17.90;57.60;;;;;;4966813;28;20093;-75
2022/05/02 11:03:08;;;;;;;0.35;0.35;;;18.10;57.80;;;;;;4969029;28;20280;-76
2022/05/02 11:05:44;;;;;;;0.52;0.32;;;18.90;58.40;;;;;;4965997;28;20575;-76
2022/05/02 11:08:22;;;;;;;4.28;1.05;;;19.80;53.70;;;;;;4968694;28;20092;-76
2022/05/02 11:10:57;;;;;;;0.10;0.10;;;20.70;54.30;;;;;;4967370;28;20053;-76
2022/05/02 11:13:47;;;;;;;2.17;0.85;;;21.20;52.10;;;;;;4968503;28;20190;-75
2022/05/02 11:16:25;;;;;;;0.20;0.20;;;21.00;51.90;;;;;;4968511;28;20035;-76
2022/05/02 11:22:25;;;;;;;1.20;0.57;;;21.70;49.70;;;;;;4967506;28;20503;-76
2022/05/02 11:25:06;;;;;;;0.68;0.25;;;21.90;51.30;;;;;;4967457;28;20114;-76
2022/05/02 11:27:56;;;;;;;0.73;0.52;;;22.00;51.70;;;;;;4968340;28;20453;-77
2022/05/02 11:30:50;;;;;;;0.30;0.30;;;22.00;49.80;;;;;;4966562;28;20038;-76
2022/05/02 11:33:28;;;;;;;2.17;1.10;;;21.60;50.30;;;;;;4965961;28;20035;-75
2022/05/02 11:36:00;;;;;;;0.63;0.60;;;21.80;51.70;;;;;;4965086;28;20391;-76
2022/05/02 11:38:53;;;;;;;1.25;0.38;;;22.20;49.80;;;;;;4968302;28;20026;-76
2022/05/02 11:41:21;;;;;;;0.47;0.47;;;22.60;50.60;;;;;;4966308;28;20320;-76
2022/05/02 11:43:48;;;;;;;0.25;0.22;;;23.20;49.90;;;;;;4967720;28;20078;-76
2022/05/02 11:46:15;;;;;;;0.32;0.32;;;23.20;50.10;;;;;;4967841;28;20061;-76
2022/05/02 11:48:58;;;;;;;0.38;0.38;;;23.70;46.10;;;;;;4967071;28;20026;-76
2022/05/02 11:51:50;;;;;;;0.05;0.05;;;23.70;46.10;;;;;;4967790;28;20101;-76
2022/05/02 11:54:28;;;;;;;0.40;0.40;;;24.10;45.20;;;;;;4961522;28;20545;-76
2022/05/02 11:57:36;;;;;;;0.30;0.28;;;24.00;46.10;;;;;;4967837;28;20544;-76
2022/05/02 12:00:15;;;;;;;0.28;0.28;;;24.50;45.60;;;;;;4956437;28;20038;-76
2022/05/02 12:02:53;;;;;;;13.73;0.40;;;24.90;44.80;;;;;;4968038;28;20138;-76
2022/05/02 12:05:27;;;;;;;0.52;0.50;;;25.30;45.50;;;;;;4966523;28;20046;-76
2022/05/02 12:08:01;;;;;;;2.08;1.17;;;25.70;43.80;;;;;;4967649;28;20367;-76
2022/05/02 12:10:36;;;;;;;0.70;0.40;;;25.90;42.70;;;;;;4967630;28;20031;-77
2022/05/02 12:13:12;;;;;;;0.20;0.20;;;25.80;40.30;;;;;;4966297;28;20080;-77
2022/05/02 12:16:04;;;;;;;0.60;0.50;;;25.80;40.00;;;;;;4966252;28;20059;-76
2022/05/02 12:19:03;;;;;;;1.35;0.63;;;25.90;41.00;;;;;;4966320;28;20105;-77
2022/05/02 12:21:45;;;;;;;0.73;0.73;;;26.00;40.80;;;;;;4968196;28;20049;-76
2022/05/02 12:24:26;;;;;;;0.52;0.28;;;26.40;40.00;;;;;;4966887;28;20128;-75
2022/05/02 12:26:53;;;;;;;0.63;0.63;;;26.00;39.60;;;;;;4965511;28;20078;-76
2022/05/02 12:29:19;;;;;;;0.43;0.43;;;25.30;40.70;;;;;;4967551;28;20031;-75
2022/05/02 12:32:00;;;;;;;1.23;1.15;;;25.30;42.60;;;;;;4965544;28;20035;-76
2022/05/02 12:34:50;;;;;;;0.20;0.20;;;26.30;41.40;;;;;;4967674;28;20125;-76
2022/05/02 12:37:23;;;;;;;0.38;0.35;;;25.80;38.70;;;;;;4966760;28;20540;-76
2022/05/02 12:40:03;;;;;;;0.65;0.50;;;23.90;41.50;;;;;;4970865;28;20042;-76
2022/05/02 12:42:41;;;;;;;3.13;0.80;;;23.40;42.90;;;;;;4970708;28;20027;-77
2022/05/02 12:45:13;;;;;;;1.17;0.50;;;24.70;43.30;;;;;;4970206;28;20082;-77
2022/05/02 12:47:56;;;;;;;0.15;0.08;;;26.00;40.50;;;;;;4968795;28;20606;-76
2022/05/02 12:50:25;;;;;;;0.47;0.45;;;25.20;39.20;;;;;;4970658;28;20070;-76
2022/05/02 12:52:57;;;;;;;1.00;0.80;;;24.00;40.90;;;;;;4967616;28;21966;-76
2022/05/02 12:55:29;;;;;;;0.93;0.55;;;23.20;43.30;;;;;;4969655;28;20045;-76
2022/05/02 13:00:44;;;;;;;0.40;0.40;;;28.00;40.40;;;;;;4968630;28;20127;-76
2022/05/02 13:03:10;;;;;;;0.40;0.40;;;30.40;35.00;;;;;;4968899;28;20046;-78
2022/05/02 13:05:39;;;;;;;0.73;0.70;;;31.50;34.70;;;;;;4967902;28;20085;-78
2022/05/02 13:08:11;;;;;;;0.50;0.50;;;32.50;33.20;;;;;;4969391;28;20030;-78
2022/05/02 13:10:39;;;;;;;0.50;0.50;;;33.30;32.60;;;;;;4968855;28;20034;-77
2022/05/02 13:13:06;;;;;;;0.17;0.17;;;33.30;31.20;;;;;;4967029;28;20038;-77
2022/05/02 13:15:36;;;;;;;0.32;0.32;;;33.10;29.90;;;;;;4970521;28;20030;-77
2022/05/02 13:18:07;;;;;;;0.55;0.43;;;33.30;29.50;;;;;;4969406;28;20035;-77
2022/05/02 13:20:33;;;;;;;0.15;0.15;;;33.80;30.00;;;;;;4967762;28;20512;-78
2022/05/02 13:23:07;;;;;;;0.40;0.40;;;31.20;30.20;;;;;;4967962;28;20160;-79
2022/05/02 13:25:56;;;;;;;0.40;0.40;;;31.00;31.70;;;;;;4968306;28;20123;-79
2022/05/02 13:28:23;;;;;;;0.85;0.57;;;32.50;30.20;;;;;;4969374;28;20031;-79
2022/05/02 13:30:53;;;;;;;8.57;0.47;;;32.60;30.60;;;;;;4968631;28;20217;-79
2022/05/02 13:33:26;;;;;;;0.70;0.30;;;33.60;30.20;;;;;;4969403;28;20134;-77
2022/05/02 13:36:05;;;;;;;1.25;0.68;;;34.50;30.00;;;;;;4967483;28;20050;-78
2022/05/02 13:38:40;;;;;;;1.23;0.70;;;35.30;28.80;;;;;;4964089;28;20030;-79
2022/05/02 13:41:16;;;;;;;0.38;0.35;;;36.20;28.10;;;;;;4965546;28;20031;-79
2022/05/02 13:43:51;;;;;;;0.65;0.38;;;36.60;27.00;;;;;;4967589;28;20030;-79
2022/05/02 13:46:54;;;;;;;0.73;0.32;;;36.00;26.60;;;;;;4968806;28;20054;-78
2022/05/02 13:49:52;;;;;;;0.55;0.55;;;37.30;27.30;;;;;;4936785;28;20059;-79
2022/05/02 13:52:35;;;;;;;1.85;0.70;;;37.80;26.90;;;;;;4969136;28;20261;-78
2022/05/02 13:55:09;;;;;;;0.50;0.50;;;34.50;27.90;;;;;;4969052;28;20366;-78
2022/05/02 13:58:06;;;;;;;1.67;0.88;;;32.80;28.40;;;;;;4969056;28;20027;-78
2022/05/02 14:01:26;;;;;;;0.60;0.60;;;34.10;28.30;;;;;;4962215;28;20965;-82